Terminal Aerodrome Forecast
Issued by NWS

Home | Current Version | Previous Version | Text Only | Print | Product List | Glossary On
Versions: 1 2 3 4 5 6 7 8 9 10 11 12 13 14 15 16 17
000
FTUS42 KTBW 050540
TAFPGD
TAF
KPGD 050540Z 0506/0606 VRB03KT P6SM FEW035 SCT250
     FM051500 15007KT P6SM SCT030 BKN250
     FM051800 23004KT P6SM VCTS SCT040CB BKN250
     FM060000 VRB03KT P6SM FEW040 SCT150 BKN250=

USA.gov is the U.S. government's official web portal to all federal, state and local government web resources and services.